Time;durP1;ratioP1;P1;durP2;ratioP2;P2;SDS_P1;SDS_P2;PMS_P1;PMS_P2;Temp;Humidity;BMP_temperature;BMP_pressure;BME280_temperature;BME280_humidity;BME280_pressure;Samples;Min_cycle;Max_cycle;Signal;HPM_P1;HPM_P2
2021/06/08 00:01:26;;;;;;;29.10;11.10;;;;;;;11.38;67.65;99169.94;2189373;81;21053;-62
2021/06/08 00:04:26;;;;;;;26.37;10.65;;;;;;;11.41;67.57;99175.84;2189207;81;21462;-62
2021/06/08 00:07:27;;;;;;;24.05;9.90;;;;;;;11.46;67.28;99164.22;2189269;81;20971;-61
2021/06/08 00:10:27;;;;;;;26.07;9.70;;;;;;;11.37;67.22;99165.13;2189534;81;21508;-65
2021/06/08 00:13:28;;;;;;;23.52;9.70;;;;;;;11.29;67.54;99163.90;2189224;81;21058;-65
2021/06/08 00:16:28;;;;;;;28.10;11.20;;;;;;;11.22;68.09;99168.20;2171378;81;21122;-64
2021/06/08 00:19:29;;;;;;;28.77;11.18;;;;;;;11.11;67.79;99164.52;2168280;82;20976;-65
2021/06/08 00:22:30;;;;;;;27.17;10.78;;;;;;;11.01;67.91;99158.95;2168469;82;21042;-64
2021/06/08 00:25:33;;;;;;;27.60;10.88;;;;;;;10.95;68.29;99162.77;2139580;82;21019;-65
2021/06/08 00:28:33;;;;;;;24.82;10.60;;;;;;;10.92;68.46;99162.95;2168513;82;21531;-64
2021/06/08 00:31:34;;;;;;;26.30;10.82;;;;;;;10.90;68.64;99162.17;2168470;82;21432;-62
2021/06/08 00:34:34;;;;;;;46.23;19.05;;;;;;;10.90;68.53;99163.03;2168398;82;20976;-62
2021/06/08 00:37:35;;;;;;;39.65;15.58;;;;;;;10.92;68.55;99164.25;2168824;82;21016;-62
2021/06/08 00:40:35;;;;;;;33.48;14.43;;;;;;;10.90;68.50;99159.55;2168759;82;21014;-62
2021/06/08 00:43:35;;;;;;;24.05;10.05;;;;;;;10.86;68.48;99161.52;2168623;82;20983;-62
2021/06/08 00:46:36;;;;;;;22.40;8.88;;;;;;;10.84;70.40;99166.46;2168701;82;20968;-61
2021/06/08 00:49:37;;;;;;;26.37;9.30;;;;;;;10.53;69.12;99162.92;2168213;82;21023;-62
2021/06/08 00:52:37;;;;;;;26.65;9.75;;;;;;;10.43;69.17;99161.73;2168349;82;21007;-62
2021/06/08 00:55:38;;;;;;;25.55;11.18;;;;;;;10.44;69.37;99162.96;2168635;81;21034;-62
2021/06/08 00:58:38;;;;;;;28.80;10.85;;;;;;;10.52;70.00;99165.19;2168721;82;20979;-62
2021/06/08 01:01:38;;;;;;;29.85;12.33;;;;;;;10.51;69.69;99164.80;2168669;82;21008;-63
2021/06/08 01:04:39;;;;;;;30.55;11.88;;;;;;;10.49;69.18;99161.42;2168544;82;20956;-64
2021/06/08 01:07:40;;;;;;;34.88;12.23;;;;;;;10.49;69.46;99160.11;2168359;82;20941;-62
2021/06/08 01:10:41;;;;;;;29.23;12.43;;;;;;;10.45;69.41;99154.66;2168491;82;21047;-62
2021/06/08 01:13:41;;;;;;;27.40;11.05;;;;;;;10.39;69.67;99154.05;2168425;82;21007;-65
2021/06/08 01:16:41;;;;;;;24.70;9.03;;;;;;;10.38;69.58;99160.21;2185713;81;21042;-65
2021/06/08 01:19:42;;;;;;;28.02;9.98;;;;;;;10.36;69.99;99158.16;2189473;81;21077;-61
2021/06/08 01:22:42;;;;;;;24.47;9.25;;;;;;;10.33;69.50;99158.30;2189605;81;21050;-61
2021/06/08 01:25:43;;;;;;;26.60;11.03;;;;;;;10.29;69.64;99156.77;2189532;81;20963;-62
2021/06/08 01:28:43;;;;;;;28.15;12.10;;;;;;;10.23;69.96;99160.56;2189769;81;20971;-61
2021/06/08 01:31:44;;;;;;;27.05;10.75;;;;;;;10.18;70.18;99161.27;2189056;81;21015;-63
2021/06/08 01:34:44;;;;;;;25.20;9.60;;;;;;;10.21;70.20;99153.27;2189500;81;21524;-65
2021/06/08 01:37:45;;;;;;;25.45;9.75;;;;;;;10.21;70.19;99151.95;2189407;81;21461;-65
2021/06/08 01:40:45;;;;;;;27.07;10.98;;;;;;;10.22;70.36;99147.54;2189376;81;21039;-65
2021/06/08 01:43:46;;;;;;;24.67;11.00;;;;;;;10.22;70.36;99147.06;2189668;81;20970;-65
2021/06/08 01:46:46;;;;;;;28.27;10.23;;;;;;;10.22;70.45;99150.16;2189369;81;21022;-65
2021/06/08 01:49:47;;;;;;;25.15;11.30;;;;;;;10.32;70.25;99150.52;2189523;81;20982;-65
2021/06/08 01:52:47;;;;;;;26.90;10.15;;;;;;;10.37;70.59;99151.98;2188993;81;21525;-65
2021/06/08 01:55:48;;;;;;;22.95;9.48;;;;;;;10.16;70.26;99157.89;2189338;81;21561;-66
2021/06/08 01:58:49;;;;;;;22.77;9.33;;;;;;;10.04;70.79;99157.23;2189336;81;20983;-64
2021/06/08 02:01:49;;;;;;;23.15;8.95;;;;;;;9.98;71.05;99154.94;2189589;81;20987;-65
2021/06/08 02:04:52;;;;;;;24.65;9.88;;;;;;;9.93;70.78;99153.02;2189614;81;20947;-66
2021/06/08 02:07:52;;;;;;;30.62;13.55;;;;;;;9.86;70.91;99157.28;2164572;81;21403;-65
2021/06/08 02:10:53;;;;;;;32.60;14.63;;;;;;;9.81;71.17;99159.31;2189607;81;21022;-66
2021/06/08 02:13:53;;;;;;;28.05;11.40;;;;;;;9.82;71.62;99160.16;2189401;81;20979;-66
2021/06/08 02:16:54;;;;;;;30.80;13.53;;;;;;;9.81;71.32;99158.45;2172240;81;20964;-66
2021/06/08 02:19:54;;;;;;;25.88;10.35;;;;;;;9.73;71.39;99162.80;2168412;82;21564;-65
2021/06/08 02:22:55;;;;;;;26.40;10.75;;;;;;;9.69;71.13;99158.64;2168537;81;21537;-62
2021/06/08 02:25:55;;;;;;;25.80;11.28;;;;;;;9.68;71.23;99157.80;2168605;82;20967;-61
2021/06/08 02:28:56;;;;;;;24.47;10.82;;;;;;;9.64;71.40;99163.25;2168582;82;21018;-61
2021/06/08 02:31:56;;;;;;;28.80;13.15;;;;;;;9.62;71.49;99163.34;2168736;82;21026;-61
2021/06/08 02:34:57;;;;;;;38.48;18.20;;;;;;;9.64;71.77;99164.13;2168247;82;21494;-63
2021/06/08 02:37:58;;;;;;;35.00;17.60;;;;;;;9.75;71.70;99162.71;2168455;82;21014;-61
2021/06/08 02:40:58;;;;;;;41.90;20.30;;;;;;;9.73;71.49;99161.95;2168781;82;21003;-61
2021/06/08 02:43:59;;;;;;;41.37;20.92;;;;;;;9.71;71.71;99160.26;2168540;82;21070;-62
2021/06/08 02:46:59;;;;;;;33.83;16.90;;;;;;;9.71;71.91;99158.95;2168790;82;21003;-62
2021/06/08 02:50:00;;;;;;;34.38;15.88;;;;;;;9.72;72.08;99161.09;2168660;82;20996;-64
2021/06/08 02:53:00;;;;;;;31.60;14.53;;;;;;;9.77;71.89;99159.09;2168527;82;21443;-60
2021/06/08 02:56:01;;;;;;;29.55;14.83;;;;;;;9.82;71.79;99158.37;2168542;82;20936;-61
2021/06/08 02:59:01;;;;;;;29.15;12.15;;;;;;;9.95;71.81;99162.97;2168651;82;21016;-65
2021/06/08 03:02:02;;;;;;;25.70;12.18;;;;;;;10.09;71.83;99171.42;2168643;82;20983;-65
2021/06/08 03:05:02;;;;;;;25.57;11.50;;;;;;;10.11;71.72;99174.80;2168549;82;20944;-65
2021/06/08 03:08:02;;;;;;;22.85;10.03;;;;;;;10.09;71.80;99171.42;2168790;82;20944;-64
2021/06/08 03:11:03;;;;;;;21.20;8.95;;;;;;;10.14;71.59;99173.31;2168603;82;21042;-65
2021/06/08 03:14:03;;;;;;;22.50;9.48;;;;;;;10.27;71.57;99178.30;2168531;82;20972;-65
2021/06/08 03:17:04;;;;;;;26.68;10.30;;;;;;;10.45;71.42;99176.47;2168435;81;20999;-65
2021/06/08 03:20:09;;;;;;;24.27;10.10;;;;;;;10.50;70.94;99178.83;2168583;81;21474;-65
2021/06/08 03:23:06;;;;;;;24.30;10.43;;;;;;;10.50;70.89;99181.45;2139674;82;21015;-65
2021/06/08 03:26:07;;;;;;;23.25;9.80;;;;;;;10.57;71.00;99183.67;2168539;82;21535;-65
2021/06/08 03:29:08;;;;;;;22.85;9.63;;;;;;;10.66;70.83;99186.69;2168407;82;21585;-64
2021/06/08 03:32:08;;;;;;;30.20;10.88;;;;;;;10.75;70.58;99192.28;2168400;82;21062;-64
2021/06/08 03:35:10;;;;;;;24.75;10.15;;;;;;;10.82;70.44;99190.17;2168459;82;21099;-65
2021/06/08 03:38:11;;;;;;;24.53;10.50;;;;;;;11.01;70.53;99190.44;2168377;82;21068;-65
2021/06/08 03:41:11;;;;;;;25.88;9.95;;;;;;;11.07;70.17;99191.39;2168485;82;20987;-65
2021/06/08 03:44:12;;;;;;;26.95;9.80;;;;;;;11.11;70.07;99194.70;2167991;82;21483;-64
2021/06/08 03:47:12;;;;;;;32.98;10.30;;;;;;;11.18;70.25;99198.67;2168371;81;21471;-65
2021/06/08 03:50:14;;;;;;;27.00;10.23;;;;;;;11.32;70.19;99195.22;2168348;81;21091;-65
2021/06/08 03:53:15;;;;;;;38.70;11.57;;;;;;;11.57;70.43;99197.27;2168468;82;21031;-64
2021/06/08 03:56:15;;;;;;;28.60;10.40;;;;;;;11.84;70.28;99193.46;2168530;82;21025;-64
2021/06/08 03:59:15;;;;;;;28.15;10.72;;;;;;;12.13;69.88;99193.50;2168397;82;21525;-65
2021/06/08 04:02:16;;;;;;;27.42;10.30;;;;;;;12.38;69.73;99195.44;2168298;82;21003;-65
2021/06/08 04:05:16;;;;;;;25.32;10.58;;;;;;;12.54;69.37;99195.80;2168450;82;21047;-65
2021/06/08 04:08:17;;;;;;;34.23;12.50;;;;;;;12.79;69.41;99193.77;2168533;81;20979;-65
2021/06/08 04:11:17;;;;;;;33.18;12.43;;;;;;;13.08;69.59;99200.25;2168577;82;20967;-65
2021/06/08 04:14:18;;;;;;;33.20;12.33;;;;;;;13.49;69.37;99198.02;2168416;82;21034;-62
2021/06/08 04:17:18;;;;;;;31.87;12.40;;;;;;;13.83;69.35;99200.53;2168341;81;21011;-62
2021/06/08 04:20:19;;;;;;;30.08;15.08;;;;;;;14.09;68.51;99197.03;2168485;82;20964;-62
2021/06/08 04:23:19;;;;;;;32.28;14.60;;;;;;;14.47;68.50;99189.05;2168439;82;21454;-63
2021/06/08 04:26:19;;;;;;;34.95;16.02;;;;;;;14.88;68.06;99191.00;2168469;82;20932;-65
2021/06/08 04:29:20;;;;;;;32.53;16.15;;;;;;;15.19;66.37;99189.59;2168502;82;20940;-64
2021/06/08 04:32:20;;;;;;;31.10;15.43;;;;;;;15.34;65.75;99181.01;2168372;82;21062;-63
2021/06/08 04:35:21;;;;;;;29.30;15.80;;;;;;;15.45;65.87;99191.25;2168687;82;21023;-64
2021/06/08 04:38:22;;;;;;;31.68;15.45;;;;;;;15.66;66.33;99192.26;2168269;82;21010;-64
2021/06/08 04:41:22;;;;;;;35.35;17.70;;;;;;;15.92;66.24;99184.16;2168499;81;20952;-64
2021/06/08 04:44:23;;;;;;;31.65;15.65;;;;;;;16.19;65.71;99185.13;2168416;82;20940;-65
2021/06/08 04:47:23;;;;;;;36.83;17.57;;;;;;;16.50;65.89;99178.70;2168343;82;21523;-65
2021/06/08 04:50:23;;;;;;;33.25;17.35;;;;;;;16.81;65.15;99174.92;2168466;82;21006;-65
2021/06/08 04:53:24;;;;;;;33.40;15.68;;;;;;;17.09;64.55;99177.98;2168499;82;20976;-65
2021/06/08 04:56:24;;;;;;;31.97;14.78;;;;;;;17.41;64.10;99177.11;2168943;82;20972;-65
2021/06/08 04:59:25;;;;;;;34.38;14.80;;;;;;;17.75;63.38;99178.24;2168665;82;21019;-64
2021/06/08 05:02:25;;;;;;;37.23;15.63;;;;;;;18.00;62.83;99175.20;2168479;82;21050;-64
2021/06/08 05:05:26;;;;;;;33.40;14.87;;;;;;;18.18;62.27;99175.39;2168223;82;21012;-62
2021/06/08 05:08:26;;;;;;;34.27;16.60;;;;;;;18.37;62.36;99176.94;2168705;82;20977;-65
2021/06/08 05:11:27;;;;;;;28.73;14.13;;;;;;;18.61;61.67;99174.77;2168526;82;21508;-64
2021/06/08 05:14:27;;;;;;;30.57;15.18;;;;;;;18.80;61.16;99166.48;2168486;82;20999;-64
2021/06/08 05:17:28;;;;;;;33.53;16.20;;;;;;;18.80;61.16;99166.48;2183167;81;21046;-63
2021/06/08 05:20:28;;;;;;;31.68;15.88;;;;;;;19.00;60.53;99173.52;2189629;81;20974;-64
2021/06/08 05:23:29;;;;;;;32.83;15.65;;;;;;;19.29;60.24;99172.67;2189730;81;20993;-65
2021/06/08 05:26:30;;;;;;;30.30;14.75;;;;;;;19.59;59.19;99176.14;2189624;81;21122;-63
2021/06/08 05:29:31;;;;;;;28.87;14.65;;;;;;;19.83;58.79;99178.87;2189677;81;21513;-62
2021/06/08 05:32:31;;;;;;;26.02;13.03;;;;;;;20.08;58.97;99174.70;2189377;81;20962;-63
2021/06/08 05:35:31;;;;;;;25.60;12.20;;;;;;;20.27;57.68;99180.94;2189390;81;20967;-64
2021/06/08 05:38:32;;;;;;;25.68;10.43;;;;;;;20.37;57.05;99177.25;2189396;81;20951;-64
2021/06/08 05:41:32;;;;;;;22.93;10.28;;;;;;;20.52;56.63;99168.77;2189479;81;20971;-64
2021/06/08 05:44:34;;;;;;;22.77;10.03;;;;;;;20.68;54.68;99170.29;2189734;81;21029;-65
2021/06/08 05:47:34;;;;;;;27.05;9.80;;;;;;;20.91;55.60;99172.53;2189662;81;20947;-64
2021/06/08 05:50:35;;;;;;;25.05;10.03;;;;;;;21.06;55.17;99172.83;2189648;81;20983;-64
2021/06/08 05:53:35;;;;;;;22.98;9.65;;;;;;;21.37;55.28;99174.60;2189501;81;21082;-64
2021/06/08 05:56:36;;;;;;;23.42;8.78;;;;;;;21.69;52.96;99173.70;2189762;81;21018;-65
2021/06/08 05:59:36;;;;;;;23.18;9.10;;;;;;;21.66;52.67;99173.51;2189773;81;20975;-65
2021/06/08 06:02:37;;;;;;;21.37;8.50;;;;;;;21.75;52.77;99171.73;2189652;81;20991;-65
2021/06/08 06:05:37;;;;;;;20.43;8.63;;;;;;;21.69;51.54;99175.03;2189483;81;21357;-64
2021/06/08 06:08:38;;;;;;;22.43;8.50;;;;;;;21.75;53.46;99179.26;2189349;81;21557;-63
2021/06/08 06:11:38;;;;;;;22.50;8.33;;;;;;;21.92;51.61;99178.87;2189572;81;21537;-63
2021/06/08 06:14:39;;;;;;;24.33;8.20;;;;;;;22.13;50.62;99175.78;2189721;81;21509;-65
2021/06/08 06:17:39;;;;;;;20.43;7.53;;;;;;;22.28;51.04;99168.50;2175663;81;21448;-64
2021/06/08 06:20:40;;;;;;;22.13;8.37;;;;;;;22.43;51.19;99166.94;2168527;82;21006;-63
2021/06/08 06:23:40;;;;;;;23.03;8.50;;;;;;;22.80;50.59;99164.36;2168690;82;20940;-64
2021/06/08 06:26:41;;;;;;;22.93;8.17;;;;;;;23.17;50.49;99166.27;2168841;82;20979;-63
2021/06/08 06:29:41;;;;;;;20.53;7.67;;;;;;;23.49;49.26;99157.41;2168841;82;20971;-64
2021/06/08 06:32:42;;;;;;;20.13;7.20;;;;;;;23.75;49.21;99157.70;2168758;82;20971;-65
2021/06/08 06:35:42;;;;;;;20.00;7.23;;;;;;;23.92;45.66;99159.88;2168679;82;21473;-64
2021/06/08 06:38:43;;;;;;;18.93;6.40;;;;;;;23.80;46.72;99166.56;2168708;82;21450;-65
2021/06/08 06:41:43;;;;;;;20.27;6.83;;;;;;;23.97;44.19;99166.88;2169292;82;21020;-64
2021/06/08 06:44:44;;;;;;;19.20;6.60;;;;;;;23.97;44.01;99165.54;2168634;82;21019;-64
2021/06/08 06:47:44;;;;;;;16.90;5.90;;;;;;;23.98;45.61;99159.70;2168739;82;21074;-65
2021/06/08 06:50:45;;;;;;;14.80;5.57;;;;;;;24.12;44.04;99158.12;2168847;82;20948;-64
2021/06/08 06:53:45;;;;;;;18.47;5.47;;;;;;;24.23;44.29;99151.56;2168978;82;20948;-65
2021/06/08 06:56:46;;;;;;;17.10;5.70;;;;;;;24.36;40.43;99162.55;2168942;82;20948;-64
2021/06/08 06:59:46;;;;;;;15.90;5.43;;;;;;;24.32;41.69;99155.87;2169011;82;20968;-65
2021/06/08 07:02:49;;;;;;;17.97;5.63;;;;;;;24.30;42.41;99150.68;2168734;82;20968;-64
2021/06/08 07:05:49;;;;;;;17.27;5.50;;;;;;;24.46;40.92;99151.62;2139646;82;21019;-65
2021/06/08 07:08:49;;;;;;;17.37;5.57;;;;;;;24.56;42.35;99150.89;2168737;82;21004;-64
2021/06/08 07:11:50;;;;;;;17.37;5.13;;;;;;;24.62;40.12;99156.91;2168976;82;20987;-64
2021/06/08 07:14:50;;;;;;;14.30;4.80;;;;;;;24.54;39.57;99157.77;2168685;82;21061;-66
2021/06/08 07:17:51;;;;;;;15.87;5.13;;;;;;;24.59;39.53;99153.73;2168388;81;21031;-66
2021/06/08 07:20:52;;;;;;;13.80;4.73;;;;;;;24.79;39.33;99156.31;2168776;82;21034;-66
2021/06/08 07:23:52;;;;;;;14.10;4.73;;;;;;;24.85;39.46;99152.09;2168604;82;20979;-66
2021/06/08 07:26:54;;;;;;;15.50;5.17;;;;;;;25.04;39.12;99152.11;2168671;82;21546;-66
2021/06/08 07:29:54;;;;;;;;;;;;;;;25.11;37.38;99153.58;2171013;82;21119;-67
2021/06/08 07:32:55;;;;;;;12.07;4.35;;;;;;;25.18;38.43;99152.67;2168516;82;20123;-66
2021/06/08 07:35:55;;;;;;;16.10;4.83;;;;;;;25.20;36.21;99156.03;2168716;82;21012;-65
2021/06/08 07:38:57;;;;;;;15.90;5.30;;;;;;;25.23;37.06;99146.79;2168657;82;21036;-66
2021/06/08 07:41:57;;;;;;;17.35;4.90;;;;;;;25.31;36.75;99163.32;2168606;82;21066;-66
2021/06/08 07:44:58;;;;;;;13.83;4.97;;;;;;;25.50;37.92;99162.00;2168569;82;21129;-66
2021/06/08 07:47:58;;;;;;;12.93;4.70;;;;;;;25.54;36.77;99155.26;2168626;82;21075;-66
2021/06/08 07:50:59;;;;;;;17.23;5.50;;;;;;;25.74;35.87;99161.76;2168890;82;21034;-65
2021/06/08 07:53:59;;;;;;;16.30;5.10;;;;;;;25.81;36.81;99151.64;2168709;82;20998;-66
2021/06/08 07:57:00;;;;;;;15.57;5.00;;;;;;;25.94;36.54;99148.61;2168756;82;20967;-66
2021/06/08 08:00:00;;;;;;;14.93;4.93;;;;;;;26.27;36.38;99156.32;2168642;82;21566;-66
2021/06/08 08:03:25;;;;;;;14.90;4.87;;;;;;;26.45;37.24;99156.45;2168486;82;20992;-65
2021/06/08 08:06:03;;;;;;;13.50;4.10;;;;;;;26.49;35.25;99148.31;2139636;82;20960;-66
2021/06/08 08:09:04;;;;;;;14.60;4.25;;;;;;;26.50;34.30;99158.58;2168625;82;21527;-65
2021/06/08 08:12:04;;;;;;;11.33;4.23;;;;;;;26.43;34.55;99153.96;2168409;82;21034;-65
2021/06/08 08:15:05;;;;;;;11.90;4.50;;;;;;;26.49;34.03;99155.55;2168759;82;20979;-64
2021/06/08 08:18:05;;;;;;;13.43;4.30;;;;;;;26.49;34.21;99145.63;2168680;82;20992;-65
2021/06/08 08:21:07;;;;;;;14.87;4.37;;;;;;;26.42;33.61;99152.28;2168798;82;20960;-65
2021/06/08 08:24:08;;;;;;;19.62;4.50;;;;;;;26.43;35.30;99155.80;2168404;82;21086;-64
2021/06/08 08:27:08;;;;;;;17.63;5.00;;;;;;;26.50;34.19;99152.67;2168447;82;20971;-64
2021/06/08 08:30:09;;;;;;;13.43;5.00;;;;;;;26.45;35.93;99153.25;2168721;82;21018;-67
2021/06/08 08:33:09;;;;;;;15.20;4.97;;;;;;;26.47;34.42;99148.20;2168717;82;20971;-66
2021/06/08 08:36:12;;;;;;;16.17;4.83;;;;;;;26.53;34.53;99154.16;2139379;82;21030;-64
2021/06/08 08:39:12;;;;;;;19.05;5.33;;;;;;;26.49;34.70;99156.90;2168409;82;21525;-64
2021/06/08 08:42:13;;;;;;;14.83;5.13;;;;;;;26.48;34.93;99150.70;2169138;82;20995;-66
2021/06/08 08:45:13;;;;;;;15.33;5.40;;;;;;;26.47;34.31;99158.95;2168623;82;21015;-66
2021/06/08 08:48:14;;;;;;;17.20;5.10;;;;;;;26.44;34.61;99151.57;2168610;82;21029;-67
2021/06/08 08:51:14;;;;;;;15.70;5.40;;;;;;;26.38;34.77;99149.64;2168844;82;20984;-67
2021/06/08 08:54:15;;;;;;;18.10;5.43;;;;;;;26.32;35.66;99150.41;2168562;82;21047;-66
2021/06/08 08:57:15;;;;;;;17.47;5.23;;;;;;;26.33;34.71;99143.98;2168692;82;20976;-66
2021/06/08 09:00:16;;;;;;;18.10;5.83;;;;;;;26.50;35.26;99147.30;2168688;82;21518;-66
2021/06/08 09:03:18;;;;;;;17.27;6.03;;;;;;;26.46;35.79;99154.07;2168525;82;21589;-66
2021/06/08 09:06:18;;;;;;;15.53;5.10;;;;;;;26.51;36.27;99155.70;2168310;82;21115;-66
2021/06/08 09:09:19;;;;;;;15.97;5.40;;;;;;;26.41;36.58;99149.78;2168360;82;20984;-66
2021/06/08 09:12:19;;;;;;;17.50;5.73;;;;;;;26.37;36.07;99150.66;2168539;82;20940;-66
2021/06/08 09:15:19;;;;;;;16.03;5.23;;;;;;;26.50;36.13;99150.51;2168693;82;21019;-65
2021/06/08 09:18:20;;;;;;;16.30;5.67;;;;;;;26.49;33.81;99151.00;2180885;81;21569;-66
2021/06/08 09:21:20;;;;;;;19.50;5.57;;;;;;;26.50;36.96;99145.95;2189438;81;21524;-65
2021/06/08 09:24:21;;;;;;;14.13;5.50;;;;;;;26.50;36.24;99149.98;2189434;81;20975;-66
2021/06/08 09:27:22;;;;;;;15.00;5.05;;;;;;;26.09;37.54;99145.16;2189032;81;21121;-66
2021/06/08 09:30:22;;;;;;;14.17;5.13;;;;;;;26.27;37.11;99146.09;2189544;81;21039;-66
2021/06/08 09:33:23;;;;;;;13.97;4.83;;;;;;;26.40;35.21;99144.90;2189456;81;21050;-66
2021/06/08 09:36:23;;;;;;;13.27;4.37;;;;;;;26.85;36.17;99144.83;2189499;81;20974;-67
2021/06/08 09:39:24;;;;;;;18.33;5.07;;;;;;;27.04;33.26;99133.93;2189902;81;21007;-67
2021/06/08 09:42:24;;;;;;;13.03;4.73;;;;;;;27.18;32.12;99138.91;2189838;81;20960;-67
2021/06/08 09:45:24;;;;;;;14.13;4.50;;;;;;;27.18;32.12;99138.91;2189908;81;20994;-67
2021/06/08 09:48:25;;;;;;;11.17;4.33;;;;;;;26.85;32.98;99142.14;2189789;81;20939;-67
2021/06/08 09:51:25;;;;;;;13.47;4.30;;;;;;;26.88;32.68;99143.09;2189789;81;21419;-66
2021/06/08 09:54:26;;;;;;;15.20;4.43;;;;;;;27.02;32.49;99144.56;2189701;81;21423;-66
2021/06/08 09:57:27;;;;;;;12.93;4.07;;;;;;;27.04;31.84;99133.08;2189671;81;20947;-66
2021/06/08 10:00:28;;;;;;;13.15;4.47;;;;;;;27.23;32.31;99132.95;2189698;81;21004;-65
2021/06/08 10:03:28;;;;;;;11.23;4.10;;;;;;;27.48;31.94;99132.03;2189556;81;21007;-65
2021/06/08 10:06:29;;;;;;;14.87;4.53;;;;;;;27.36;32.01;99133.61;2189614;81;21075;-65
2021/06/08 10:09:29;;;;;;;13.10;4.23;;;;;;;27.26;30.98;99141.98;2189616;81;21513;-66
2021/06/08 10:12:30;;;;;;;14.87;4.33;;;;;;;27.53;31.73;99130.94;2189593;81;21485;-65
2021/06/08 10:15:30;;;;;;;14.07;4.40;;;;;;;27.36;31.53;99140.34;2189391;81;21498;-66
2021/06/08 10:18:31;;;;;;;17.83;4.90;;;;;;;27.08;30.41;99141.09;2189528;81;21003;-66
2021/06/08 10:21:31;;;;;;;11.73;4.50;;;;;;;26.95;32.49;99127.00;2189560;81;20963;-66
2021/06/08 10:24:32;;;;;;;14.58;4.90;;;;;;;26.43;31.06;99131.59;2189653;81;21490;-66
2021/06/08 10:27:33;;;;;;;21.57;5.43;;;;;;;26.38;31.31;99121.94;2189833;81;20943;-64
2021/06/08 10:30:33;;;;;;;18.10;5.30;;;;;;;27.01;31.83;99120.02;2189547;81;21022;-66
2021/06/08 10:33:33;;;;;;;12.97;4.90;;;;;;;27.58;33.05;99118.22;2189591;81;21558;-66
2021/06/08 10:36:34;;;;;;;13.40;4.30;;;;;;;27.68;31.89;99121.92;2189714;81;21477;-66
2021/06/08 10:39:35;;;;;;;11.97;4.33;;;;;;;27.99;32.19;99126.91;2189715;81;20994;-67
2021/06/08 10:42:35;;;;;;;11.00;4.35;;;;;;;28.06;30.51;99122.88;2189403;81;20970;-66
2021/06/08 10:45:36;;;;;;;12.73;4.30;;;;;;;28.30;30.95;99122.38;2189817;81;20983;-66
2021/06/08 10:48:40;;;;;;;15.43;4.60;;;;;;;28.58;30.79;99106.59;2189810;81;20982;-65
2021/06/08 10:51:39;;;;;;;12.18;4.30;;;;;;;28.69;30.13;99099.28;2164022;81;21517;-67
2021/06/08 10:54:40;;;;;;;12.07;4.40;;;;;;;28.38;28.93;99101.14;2189427;81;20998;-64
2021/06/08 10:57:40;;;;;;;15.57;4.60;;;;;;;27.99;29.27;99129.60;2189669;81;20979;-64
2021/06/08 11:00:41;;;;;;;14.23;5.00;;;;;;;27.11;29.53;99120.52;2189573;81;21014;-65
2021/06/08 11:03:41;;;;;;;12.40;4.90;;;;;;;26.76;31.31;99114.50;2189696;81;21019;-64
2021/06/08 11:06:45;;;;;;;13.10;4.30;;;;;;;27.26;32.23;99111.03;2189640;81;20976;-66
2021/06/08 11:09:44;;;;;;;12.60;4.28;;;;;;;27.40;30.61;99120.08;2163626;81;21038;-65
2021/06/08 11:12:45;;;;;;;15.27;4.20;;;;;;;27.00;31.57;99118.37;2189804;81;20979;-64
2021/06/08 11:15:45;;;;;;;17.30;4.33;;;;;;;27.27;31.25;99113.52;2189795;81;20979;-66
2021/06/08 11:18:46;;;;;;;12.43;4.30;;;;;;;27.56;31.45;99117.08;2189311;81;21002;-65
2021/06/08 11:21:46;;;;;;;9.63;4.10;;;;;;;27.72;30.95;99115.11;2189628;81;21486;-65
2021/06/08 11:24:50;;;;;;;15.30;4.07;;;;;;;27.65;30.74;99101.06;2189557;81;21426;-65
2021/06/08 11:27:50;;;;;;;10.85;3.85;;;;;;;27.87;32.26;99104.20;2188883;81;21611;-64
2021/06/08 11:30:51;;;;;;;10.63;3.53;;;;;;;27.98;30.36;99099.09;2189228;81;21002;-66
2021/06/08 11:33:52;;;;;;;13.50;4.13;;;;;;;27.81;29.02;99093.20;2189630;81;21022;-66
2021/06/08 11:36:52;;;;;;;16.03;3.97;;;;;;;27.04;29.87;99100.28;2189531;81;21011;-66
2021/06/08 11:39:53;;;;;;;12.77;3.80;;;;;;;26.81;32.55;99093.77;2189630;81;21022;-67
2021/06/08 11:42:53;;;;;;;12.10;3.70;;;;;;;27.25;30.56;99104.82;2189722;81;21022;-66
2021/06/08 11:45:53;;;;;;;8.10;3.57;;;;;;;27.41;29.55;99094.30;2189635;81;20943;-66
2021/06/08 11:48:54;;;;;;;8.00;3.53;;;;;;;27.52;27.30;99084.83;2189652;81;21430;-67
2021/06/08 11:51:54;;;;;;;9.87;3.40;;;;;;;27.82;26.59;99084.59;2189454;81;21469;-66
2021/06/08 11:54:55;;;;;;;10.23;3.27;;;;;;;28.14;27.58;99070.14;2189386;81;20987;-64
2021/06/08 11:57:55;;;;;;;12.47;3.87;;;;;;;28.11;26.20;99084.03;2189463;81;20980;-64
2021/06/08 12:00:55;;;;;;;10.20;3.40;;;;;;;27.34;25.82;99075.03;2189449;81;21026;-64
2021/06/08 12:03:56;;;;;;;12.13;3.57;;;;;;;26.98;27.00;99079.54;2189615;81;21026;-65
2021/06/08 12:06:57;;;;;;;14.20;3.60;;;;;;;27.46;25.28;99072.98;2189761;81;20959;-64
2021/06/08 12:09:57;;;;;;;11.93;3.43;;;;;;;27.93;28.40;99068.36;2189647;81;20924;-64
2021/06/08 12:12:58;;;;;;;12.43;3.30;;;;;;;28.24;27.94;99061.15;2189502;81;21501;-64
2021/06/08 12:15:59;;;;;;;9.27;2.87;;;;;;;28.43;25.05;99066.80;2189488;81;21031;-64
2021/06/08 12:18:59;;;;;;;7.77;3.30;;;;;;;28.44;27.03;99061.73;2177882;81;21011;-64
2021/06/08 12:21:59;;;;;;;13.70;3.10;;;;;;;28.50;26.34;99069.00;2168558;82;21003;-64
2021/06/08 12:25:00;;;;;;;11.33;3.00;;;;;;;28.31;24.76;99082.23;2168574;82;20960;-65
2021/06/08 12:28:00;;;;;;;10.70;3.23;;;;;;;28.18;24.09;99076.27;2168586;82;20983;-65
2021/06/08 12:31:01;;;;;;;11.37;3.10;;;;;;;28.35;24.31;99053.00;2168609;82;21015;-65
2021/06/08 12:34:01;;;;;;;6.50;3.03;;;;;;;28.34;24.39;99061.59;2168595;82;21067;-64
2021/06/08 12:37:02;;;;;;;10.33;3.20;;;;;;;28.30;23.97;99059.51;2168583;82;21047;-65
2021/06/08 12:40:02;;;;;;;8.00;3.03;;;;;;;28.45;26.84;99050.73;2168566;82;21035;-65
2021/06/08 12:43:03;;;;;;;7.27;3.00;;;;;;;28.07;23.06;99054.46;2168674;82;20952;-64
2021/06/08 12:46:03;;;;;;;9.90;3.33;;;;;;;28.17;24.60;99050.36;2168866;81;20967;-64
2021/06/08 12:49:04;;;;;;;6.07;2.83;;;;;;;28.35;25.18;99048.42;2168440;81;21010;-64
2021/06/08 12:52:04;;;;;;;9.40;2.90;;;;;;;28.21;26.29;99055.34;2168715;82;20975;-64
2021/06/08 12:55:04;;;;;;;12.43;3.20;;;;;;;28.12;26.27;99056.05;2168579;82;20972;-64
2021/06/08 12:58:05;;;;;;;10.53;3.10;;;;;;;28.16;25.03;99054.61;2168703;82;21518;-66
2021/06/08 13:01:05;;;;;;;11.17;3.23;;;;;;;28.21;23.78;99051.30;2168650;82;20971;-66
2021/06/08 13:04:06;;;;;;;8.67;3.27;;;;;;;28.22;25.21;99050.27;2168509;82;20999;-65
2021/06/08 13:07:06;;;;;;;7.97;3.30;;;;;;;28.28;25.13;99050.80;2168796;82;20999;-66
2021/06/08 13:10:07;;;;;;;6.27;2.90;;;;;;;28.63;25.69;99041.24;2168840;82;20996;-66
2021/06/08 13:13:07;;;;;;;11.20;3.37;;;;;;;28.95;23.76;99052.27;2168852;82;21338;-66
2021/06/08 13:16:08;;;;;;;9.73;3.30;;;;;;;28.93;24.85;99049.77;2168702;82;21089;-66
2021/06/08 13:19:08;;;;;;;11.67;3.40;;;;;;;28.71;25.21;99037.53;2168653;81;21553;-66
2021/06/08 13:22:08;;;;;;;10.87;3.50;;;;;;;28.58;26.64;99047.77;2168683;82;21534;-66
2021/06/08 13:25:09;;;;;;;8.60;3.20;;;;;;;28.42;27.28;99046.28;2168903;82;21471;-65
2021/06/08 13:28:10;;;;;;;10.50;3.07;;;;;;;28.48;26.08;99040.06;2168977;82;20992;-66
2021/06/08 13:31:11;;;;;;;9.65;3.35;;;;;;;28.83;26.43;99035.86;2168643;82;21566;-66
2021/06/08 13:34:11;;;;;;;12.00;3.63;;;;;;;28.75;25.83;99045.50;2168809;82;21035;-66
2021/06/08 13:37:12;;;;;;;10.70;3.27;;;;;;;28.79;25.48;99037.31;2168731;82;20984;-66
2021/06/08 13:40:12;;;;;;;13.57;3.33;;;;;;;28.50;26.45;99040.17;2168825;82;20956;-66
2021/06/08 13:43:13;;;;;;;12.40;3.30;;;;;;;28.47;25.52;99034.34;2168526;82;20984;-67
2021/06/08 13:46:13;;;;;;;9.18;3.20;;;;;;;28.58;25.81;99045.88;2168636;82;20983;-66
2021/06/08 13:49:14;;;;;;;14.87;3.58;;;;;;;28.61;25.10;99032.02;2168693;82;21022;-66
2021/06/08 13:52:14;;;;;;;10.83;3.20;;;;;;;28.60;27.04;99044.33;2168618;82;20984;-66
2021/06/08 13:55:15;;;;;;;9.53;3.10;;;;;;;28.61;27.17;99032.02;2168709;82;20948;-65
2021/06/08 14:01:18;;;;;;;11.88;2.98;;;;;;;28.80;25.55;99029.00;2139672;82;21030;-64